Map

Track Data

SID SEASON NUMBER BASIN SUBBASIN NAME ISO_TIME NATURE LAT LON WMO_WIND WMO_PRES WMO_AGENCY TRACK_TYPE DIST2LAND LANDFALL IFLAG USA_AGENCY USA_ATCF_ID USA_LAT USA_LON USA_RECORD USA_STATUS USA_WIND USA_PRES USA_SSHS USA_R34_NE USA_R34_SE USA_R34_SW USA_R34_NW USA_R50_NE USA_R50_SE USA_R50_SW USA_R50_NW USA_R64_NE USA_R64_SE USA_R64_SW USA_R64_NW USA_POCI USA_ROCI USA_RMW USA_EYE TOKYO_LAT TOKYO_LON TOKYO_GRADE TOKYO_WIND TOKYO_PRES TOKYO_R50_DIR TOKYO_R50_LONG TOKYO_R50_SHORT TOKYO_R30_DIR TOKYO_R30_LONG TOKYO_R30_SHORT TOKYO_LAND CMA_LAT CMA_LON CMA_CAT CMA_WIND CMA_PRES HKO_LAT HKO_LON HKO_CAT HKO_WIND HKO_PRES NEWDELHI_LAT NEWDELHI_LON NEWDELHI_GRADE NEWDELHI_WIND NEWDELHI_PRES NEWDELHI_CI NEWDELHI_DP NEWDELHI_POCI REUNION_LAT REUNION_LON REUNION_TYPE REUNION_WIND REUNION_PRES REUNION_TNUM REUNION_CI REUNION_RMW REUNION_R34_NE REUNION_R34_SE REUNION_R34_SW REUNION_R34_NW REUNION_R50_NE REUNION_R50_SE REUNION_R50_SW REUNION_R50_NW REUNION_R64_NE REUNION_R64_SE REUNION_R64_SW REUNION_R64_NW BOM_LAT BOM_LON BOM_TYPE BOM_WIND BOM_PRES BOM_TNUM BOM_CI BOM_RMW BOM_R34_NE BOM_R34_SE BOM_R34_SW BOM_R34_NW BOM_R50_NE BOM_R50_SE BOM_R50_SW BOM_R50_NW BOM_R64_NE BOM_R64_SE BOM_R64_SW BOM_R64_NW BOM_ROCI BOM_POCI BOM_EYE BOM_POS_METHOD BOM_PRES_METHOD NADI_LAT NADI_LON NADI_CAT NADI_WIND NADI_PRES WELLINGTON_LAT WELLINGTON_LON WELLINGTON_WIND WELLINGTON_PRES DS824_LAT DS824_LON DS824_STAGE DS824_WIND DS824_PRES TD9636_LAT TD9636_LON TD9636_STAGE TD9636_WIND TD9636_PRES TD9635_LAT TD9635_LON TD9635_WIND TD9635_PRES TD9635_ROCI NEUMANN_LAT NEUMANN_LON NEUMANN_CLASS NEUMANN_WIND NEUMANN_PRES MLC_LAT MLC_LON MLC_CLASS MLC_WIND MLC_PRES USA_GUST BOM_GUST BOM_GUST_PER REUNION_GUST REUNION_GUST_PER USA_SEAHGT USA_SEARAD_NE USA_SEARAD_SE USA_SEARAD_SW USA_SEARAD_NW STORM_SPEED STORM_DIR
1932092S09100 1932 19 SI WA NOT_NAMED 1932-04-01 06:00:00 NR -8.80000 100.200 spur-split 564 564 _____O________ -1 -8.80000 100.200 99 9.90000 4 230
1932092S09100 1932 19 SI WA NOT_NAMED 1932-04-01 09:00:00 NR -8.94097 100.028 spur-split 586 586 _____P________ -1 -8.94097 100.028 99 4 230
1932092S09100 1932 19 SI WA NOT_NAMED 1932-04-01 12:00:00 NR -9.08157 99.8568 spur-split 610 610 _____P________ -1 -9.08157 99.8568 99 4 230
1932092S09100 1932 19 SI WA NOT_NAMED 1932-04-01 15:00:00 NR -9.22148 99.6874 spur-split 633 633 _____P________ -1 -9.22148 99.6874 99 4 230
1932092S09100 1932 19 SI WA NOT_NAMED 1932-04-01 18:00:00 NR -9.36039 99.5207 spur-split 664 664 _____P________ -1 -9.36039 99.5207 99 4 230
1932092S09100 1932 19 SI WA NOT_NAMED 1932-04-01 21:00:00 NR -9.49799 99.3576 spur-split 680 680 _____P________ -1 -9.49799 99.3576 99 4 229
1932092S09100 1932 19 SI WA NOT_NAMED 1932-04-02 00:00:00 NR -9.63400 99.1992 spur-split 702 702 _____P________ -1 -9.63400 99.1992 99 4 229
1932092S09100 1932 19 SI WA NOT_NAMED 1932-04-02 03:00:00 NR -9.76810 99.0463 spur-split 733 733 _____P________ -1 -9.76810 99.0463 99 4 228
1932092S09100 1932 19 SI WA NOT_NAMED 1932-04-02 06:00:00 NR -9.90000 98.9000 spur-split 748 748 _____O________ -1 -9.90000 98.9000 99 9.90000 4 227
1932092S09100 1932 19 SI WA NOT_NAMED 1932-04-02 09:00:00 NR -10.0297 98.7606 spur-split 764 764 _____P________ -1 -10.0297 98.7606 99 4 226
1932092S09100 1932 19 SI WA NOT_NAMED 1932-04-02 12:00:00 NR -10.1585 98.6264 spur-split 795 795 _____P________ -1 -10.1585 98.6264 99 4 226
1932092S09100 1932 19 SI WA NOT_NAMED 1932-04-02 15:00:00 NR -10.2880 98.4951 spur-split 811 811 _____P________ -1 -10.2880 98.4951 99 4 225
1932092S09100 1932 19 SI WA NOT_NAMED 1932-04-02 18:00:00 NR -10.4197 98.3643 spur-split 826 826 _____P________ -1 -10.4197 98.3643 99 4 224
1932092S09100 1932 19 SI WA NOT_NAMED 1932-04-02 21:00:00 NR -10.5551 98.2318 spur-split 857 857 _____P________ -1 -10.5551 98.2318 99 4 224
1932092S09100 1932 19 SI WA NOT_NAMED 1932-04-03 00:00:00 NR -10.6960 98.0951 spur-split 873 873 _____P________ -1 -10.6960 98.0951 99 4 223
1932092S09100 1932 19 SI WA NOT_NAMED 1932-04-03 03:00:00 NR -10.8438 97.9520 spur-split 888 888 _____P________ -1 -10.8438 97.9520 99 4 224
1932092S09100 1932 19 SI WA NOT_NAMED 1932-04-03 06:00:00 NR -11.0000 97.8000 spur-split 919 919 _____O________ -1 -11.0000 97.8000 99 9.90000 4 224
1932092S09100 1932 19 SI WA NOT_NAMED 1932-04-03 09:00:00 NR -11.1574 97.6404 spur-split 951 951 _____P________ -1 -11.1574 97.6404 99 5 225
1932092S09100 1932 19 SI WA NOT_NAMED 1932-04-03 12:00:00 NR -11.3217 97.4735 spur-split 966 966 _____P________ -1 -11.3217 97.4735 99 5 225
1932092S09100 1932 19 SI WA NOT_NAMED 1932-04-03 15:00:00 NR -11.4939 97.2990 spur-split 997 997 _____P________ -1 -11.4939 97.2990 99 5 225
1932092S09100 1932 19 SI WA NOT_NAMED 1932-04-03 18:00:00 NR -11.6748 97.1165 spur-split 1028 1028 _____P________ -1 -11.6748 97.1165 99 5 225
1932092S09100 1932 19 SI WA NOT_NAMED 1932-04-03 21:00:00 NR -11.8650 96.9258 spur-split 1059 1059 _____P________ -1 -11.8650 96.9258 99 5 224
1932092S09100 1932 19 SI WA NOT_NAMED 1932-04-04 00:00:00 NR -12.0654 96.7263 spur-split 1091 1091 _____P________ -1 -12.0654 96.7263 99 6 224
1932092S09100 1932 19 SI WA NOT_NAMED 1932-04-04 03:00:00 NR -12.2768 96.5179 spur-split 1122 1122 _____P________ -1 -12.2768 96.5179 99 6 224
1932092S09100 1932 19 SI WA NOT_NAMED 1932-04-04 06:00:00 NR -12.5000 96.3000 spur-split 1153 1153 _____O________ -1 -12.5000 96.3000 99 9.90000 6 223
1932092S09100 1932 19 SI WA NOT_NAMED 1932-04-04 09:00:00 NR -12.7249 96.0843 spur-split 1184 1184 _____P________ -1 -12.7249 96.0843 99 6 223
1932092S09100 1932 19 SI WA NOT_NAMED 1932-04-04 12:00:00 NR -12.9613 95.8594 spur-split 1224 1224 _____P________ -1 -12.9613 95.8594 99 7 223
1932092S09100 1932 19 SI WA NOT_NAMED 1932-04-04 15:00:00 NR -13.2088 95.6251 spur-split 1262 1262 _____P________ -1 -13.2088 95.6251 99 7 223
1932092S09100 1932 19 SI WA NOT_NAMED 1932-04-04 18:00:00 NR -13.4671 95.3809 spur-split 1301 1301 _____P________ -1 -13.4671 95.3809 99 7 223
1932092S09100 1932 19 SI WA NOT_NAMED 1932-04-04 21:00:00 NR -13.7357 95.1267 spur-split 1339 1339 _____P________ -1 -13.7357 95.1267 99 7 223
1932092S09100 1932 19 SI WA NOT_NAMED 1932-04-05 00:00:00 NR -14.0143 94.8620 spur-split 1379 1379 _____P________ -1 -14.0143 94.8620 99 8 223
1932092S09100 1932 19 SI WA NOT_NAMED 1932-04-05 03:00:00 NR -14.3025 94.5866 spur-split 1425 1425 _____P________ -1 -14.3025 94.5866 99 8 223
1932092S09100 1932 19 SI WA NOT_NAMED 1932-04-05 06:00:00 NR -14.6000 94.3000 spur-split 1472 1472 _____O________ -1 -14.6000 94.3000 99 9.90000 8 223
1932092S09100 1932 19 SI WA NOT_NAMED 1932-04-05 09:00:00 NR -14.9018 94.0009 spur-split 1518 1518 _____P________ -1 -14.9018 94.0009 99 9 224
1932092S09100 1932 19 SI WA NOT_NAMED 1932-04-05 12:00:00 NR -15.2142 93.6889 spur-split 1565 1565 _____P________ -1 -15.2142 93.6889 99 9 224
1932092S09100 1932 19 SI WA NOT_NAMED 1932-04-05 15:00:00 NR -15.5351 93.3668 spur-split 1611 1611 _____P________ -1 -15.5351 93.3668 99 9 224
1932092S09100 1932 19 SI WA NOT_NAMED 1932-04-05 18:00:00 NR -15.8627 93.0372 spur-split 1673 1673 _____P________ -1 -15.8627 93.0372 99 9 224
1932092S09100 1932 19 SI WA NOT_NAMED 1932-04-05 21:00:00 NR -16.1949 92.7029 spur-split 1720 1720 _____P________ -1 -16.1949 92.7029 99 9 224
1932092S09100 1932 19 SI WA NOT_NAMED 1932-04-06 00:00:00 NR -16.5298 92.3667 spur-split 1766 1766 _____P________ -1 -16.5298 92.3667 99 9 224
1932092S09100 1932 19 SI WA NOT_NAMED 1932-04-06 03:00:00 NR -16.8654 92.0315 spur-split 1827 1827 _____P________ -1 -16.8654 92.0315 99 9 224
1932092S09100 1932 19 SI WA NOT_NAMED 1932-04-06 06:00:00 NR -17.2000 91.7000 spur-split 1872 1872 _____O________ -1 -17.2000 91.7000 99 9.90000 9 226
1932092S09100 1932 19 SI WA NOT_NAMED 1932-04-06 09:00:00 NR -17.5178 91.3282 spur-split 1927 1927 _____P________ -1 -17.5178 91.3282 99 10 228
1932092S09100 1932 19 SI WA NOT_NAMED 1932-04-06 12:00:00 NR -17.8347 90.9520 spur-split 1972 1972 _____P________ -1 -17.8347 90.9520 99 10 228
1932092S09100 1932 19 SI WA NOT_NAMED 1932-04-06 15:00:00 NR -18.1522 90.5818 spur-split 2033 2033 _____P________ -1 -18.1522 90.5818 99 9 227
1932092S09100 1932 19 SI WA NOT_NAMED 1932-04-06 18:00:00 NR -18.4715 90.2285 spur-split 2087 2087 _____P________ -1 -18.4715 90.2285 99 9 225
1932092S09100 1932 19 SI MM NOT_NAMED 1932-04-06 21:00:00 NR -18.7944 89.9027 spur-split 2132 2132 _____P________ -1 -18.7944 89.9027 99 9 222
1932092S09100 1932 19 SI MM NOT_NAMED 1932-04-07 00:00:00 NR -19.1223 89.6154 spur-split 2178 2178 _____P________ -1 -19.1223 89.6154 99 8 217
1932092S09100 1932 19 SI MM NOT_NAMED 1932-04-07 03:00:00 NR -19.4570 89.3775 spur-split 2221 2221 _____P________ -1 -19.4570 89.3775 99 8 210
1932092S09100 1932 19 SI MM NOT_NAMED 1932-04-07 06:00:00 NR -19.8000 89.2000 spur-split 2259 2259 _____O________ -1 -19.8000 89.2000 99 9.90000 8 200
1932092S09100 1932 19 SI MM NOT_NAMED 1932-04-07 09:00:00 NR -20.1917 89.0997 spur-split 2294 2294 _____P________ -1 -20.1917 89.0997 99 8 190
1932092S09100 1932 19 SI MM NOT_NAMED 1932-04-07 12:00:00 NR -20.5968 89.0594 spur-split 2323 2323 _____P________ -1 -20.5968 89.0594 99 8 182
1932092S09100 1932 19 SI MM NOT_NAMED 1932-04-07 15:00:00 NR -21.0061 89.0706 spur-split 2351 2351 _____P________ -1 -21.0061 89.0706 99 8 176
1932092S09100 1932 19 SI MM NOT_NAMED 1932-04-07 18:00:00 NR -21.4107 89.1250 spur-split 2380 2380 _____P________ -1 -21.4107 89.1250 99 8 171
1932092S09100 1932 19 SI MM NOT_NAMED 1932-04-07 21:00:00 NR -21.8015 89.2139 spur-split 2402 2402 _____P________ -1 -21.8015 89.2139 99 8 166
1932092S09100 1932 19 SI MM NOT_NAMED 1932-04-08 00:00:00 NR -22.1693 89.3286 spur-split 2425 2417 _____P________ -1 -22.1693 89.3286 99 7 162
1932092S09100 1932 19 SI MM NOT_NAMED 1932-04-08 03:00:00 NR -22.5052 89.4603 spur-split 2433 2422 _____P________ -1 -22.5052 89.4603 99 7 158
1932092S09100 1932 19 SI MM NOT_NAMED 1932-04-08 06:00:00 NR -22.8000 89.6000 spur-split 2422 2407 _____O________ -1 -22.8000 89.6000 99 9.90000 6 154
1932092S09100 1932 19 SI MM NOT_NAMED 1932-04-08 09:00:00 NR -23.0472 89.7402 spur-split 2407 2382 _____P________ -1 -23.0472 89.7402 99 5 150
1932092S09100 1932 19 SI MM NOT_NAMED 1932-04-08 12:00:00 NR -23.2506 89.8793 spur-split 2379 2367 _____P________ -1 -23.2506 89.8793 99 5 145
1932092S09100 1932 19 SI WA NOT_NAMED 1932-04-08 15:00:00 NR -23.4163 90.0176 spur-split 2367 2355 _____P________ -1 -23.4163 90.0176 99 4 140
1932092S09100 1932 19 SI WA NOT_NAMED 1932-04-08 18:00:00 NR -23.5508 90.1550 spur-split 2342 2330 _____P________ -1 -23.5508 90.1550 99 4 134
1932092S09100 1932 19 SI WA NOT_NAMED 1932-04-08 21:00:00 NR -23.6601 90.2918 spur-split 2330 2320 _____P________ -1 -23.6601 90.2918 99 3 128
1932092S09100 1932 19 SI WA NOT_NAMED 1932-04-09 00:00:00 NR -23.7506 90.4281 spur-split 2318 2298 _____P________ -1 -23.7506 90.4281 99 3 124
1932092S09100 1932 19 SI WA NOT_NAMED 1932-04-09 03:00:00 NR -23.8285 90.5641 spur-split 2298 2286 _____P________ -1 -23.8285 90.5641 99 3 121
1932092S09100 1932 19 SI WA NOT_NAMED 1932-04-09 06:00:00 NR -23.9000 90.7000 spur-split 2286 _____O________ -1 -23.9000 90.7000 99 9.90000 3 120

About IBTrACS Database

This database is a web-friendly format of International Best Track Archive for Climate Stewardship (IBTrACS), a global best track data archive curated by NOAA dating back to 1842.

Updated: 2021-11-26